Time;durP1;ratioP1;P1;durP2;ratioP2;P2;SDS_P1;SDS_P2;PMS_P1;PMS_P2;Temp;Humidity;BMP_temperature;BMP_pressure;BME280_temperature;BME280_humidity;BME280_pressure;Samples;Min_cycle;Max_cycle;Signal;HPM_P1;HPM_P2
2021/06/21 00:00:19;;;;;;;8.52;5.25;;;;;;;29.78;56.30;100750.09;5110477;27;66089;-38
2021/06/21 00:05:54;;;;;;;10.70;5.13;;;;;;;29.95;58.97;100759.38;5109140;27;65231;-38
2021/06/21 00:08:25;;;;;;;7.77;5.67;;;;;;;30.00;58.06;100772.22;5108493;27;69223;-39
2021/06/21 00:17:16;;;;;;;18.02;5.60;;;;;;;30.11;65.19;100766.13;5108463;27;66004;-39
2021/06/21 00:19:47;;;;;;;16.52;4.75;;;;;;;30.21;62.85;100771.91;5069135;28;69010;-39
2021/06/21 00:25:47;;;;;;;7.45;4.88;;;;;;;30.34;61.29;100789.09;5071469;28;70252;-38
2021/06/21 00:28:36;;;;;;;15.38;5.60;;;;;;;30.37;64.13;100799.50;5069908;28;66299;-38
2021/06/21 00:31:08;;;;;;;12.52;5.10;;;;;;;30.46;61.78;100795.50;5071058;27;70327;-39
2021/06/21 00:33:39;;;;;;;7.40;5.20;;;;;;;30.53;61.73;100795.44;5069782;27;66205;-43
2021/06/21 00:36:11;;;;;;;5.57;4.17;;;;;;;30.58;62.18;100790.19;5069556;27;70255;-38
2021/06/21 00:41:33;;;;;;;6.53;4.53;;;;;;;30.66;62.04;100803.44;5071694;27;69965;-38
2021/06/21 00:44:07;;;;;;;12.35;4.72;;;;;;;30.68;62.36;100804.88;5068649;27;66196;-38
2021/06/21 00:46:56;;;;;;;8.82;4.70;;;;;;;30.71;62.21;100801.75;5073200;28;70011;-38
2021/06/21 00:49:28;;;;;;;6.68;4.28;;;;;;;30.75;62.26;100801.28;5069824;27;66393;-38
2021/06/21 00:52:21;;;;;;;9.35;4.97;;;;;;;30.80;62.58;100806.91;5046622;28;70301;-39
2021/06/21 00:55:19;;;;;;;11.60;5.03;;;;;;;30.81;62.48;100816.69;5067044;27;66013;-38
2021/06/21 00:57:52;;;;;;;6.47;4.35;;;;;;;30.84;62.38;100805.41;5025849;28;70110;-38
2021/06/21 01:00:24;;;;;;;;;;;;;;;30.72;64.57;100814.22;5026837;28;66212;-38
2021/06/21 01:03:14;;;;;;;6.57;3.72;;;;;;;30.89;62.53;100821.81;5027791;28;69749;-38
2021/06/21 01:06:04;;;;;;;5.88;4.57;;;;;;;30.92;62.63;100830.34;5028727;28;66832;-38
2021/06/21 01:08:36;;;;;;;7.45;4.20;;;;;;;30.94;63.07;100832.81;5026628;28;70221;-38
2021/06/21 01:14:31;;;;;;;8.40;4.40;;;;;;;30.85;63.65;100820.63;5030183;28;70709;-39
2021/06/21 01:17:33;;;;;;;6.68;3.65;;;;;;;30.88;64.10;100839.13;5029547;28;66858;-39
2021/06/21 01:23:55;;;;;;;7.50;4.22;;;;;;;31.04;63.67;100851.31;5027102;28;66675;-39
2021/06/21 01:27:08;;;;;;;11.65;4.57;;;;;;;30.78;63.95;100801.66;5028122;28;69988;-38
2021/06/21 01:30:04;;;;;;;7.03;5.10;;;;;;;31.09;63.63;100840.59;5027167;28;66286;-38
2021/06/21 01:32:50;;;;;;;8.68;5.20;;;;;;;31.18;62.35;100839.28;5028556;28;69887;-39
2021/06/21 01:35:35;;;;;;;13.88;4.97;;;;;;;31.19;63.50;100851.75;5079946;27;65973;-39
2021/06/21 01:41:35;;;;;;;17.15;6.15;;;;;;;31.23;63.21;100841.31;5102287;27;66438;-38
2021/06/21 01:44:08;;;;;;;17.02;5.30;;;;;;;31.28;62.09;100844.16;5101765;27;69366;-41
2021/06/21 01:46:40;;;;;;;10.93;5.60;;;;;;;31.07;62.34;100811.03;5102240;27;66044;-38
2021/06/21 01:49:32;;;;;;;16.60;5.20;;;;;;;31.10;62.75;100815.19;5096532;27;69287;-38
2021/06/21 01:52:06;;;;;;;10.13;4.97;;;;;;;31.38;62.79;100849.94;5106930;27;65927;-38
2021/06/21 01:54:44;;;;;;;9.18;4.70;;;;;;;31.42;62.19;100855.75;5102286;27;69861;-40
2021/06/21 01:57:22;;;;;;;15.55;5.15;;;;;;;31.32;62.79;100829.13;5111058;27;65156;-39
2021/06/21 01:59:55;;;;;;;11.50;5.05;;;;;;;31.46;62.00;100852.38;5098507;27;69716;-39
2021/06/21 02:08:28;;;;;;;9.15;4.93;;;;;;;31.56;62.07;100854.53;5109726;27;66131;-39
2021/06/21 02:11:19;;;;;;;7.43;4.53;;;;;;;31.53;62.54;100853.09;5100665;27;69875;-38
2021/06/21 02:14:10;;;;;;;9.57;4.35;;;;;;;31.59;62.10;100841.38;5047656;28;66469;-38
2021/06/21 02:16:42;;;;;;;10.57;4.45;;;;;;;31.61;61.96;100839.25;5049655;28;69734;-39
2021/06/21 02:19:15;;;;;;;7.40;4.53;;;;;;;31.67;61.74;100836.69;5046930;28;65658;-38
2021/06/21 02:21:48;;;;;;;9.27;4.63;;;;;;;31.70;61.61;100842.47;5050076;28;69967;-39
2021/06/21 02:24:38;;;;;;;6.95;4.50;;;;;;;31.58;61.39;100818.00;5049380;28;66225;-39
2021/06/21 02:27:11;;;;;;;11.30;4.25;;;;;;;31.71;61.78;100843.34;5048356;28;69553;-39
2021/06/21 02:32:34;;;;;;;5.85;4.35;;;;;;;31.68;61.70;100813.94;5052165;28;69342;-39
2021/06/21 02:35:24;;;;;;;7.82;4.78;;;;;;;31.80;61.14;100817.53;5046778;28;65697;-38
2021/06/21 02:37:55;;;;;;;5.57;4.03;;;;;;;31.81;61.11;100805.63;5048326;28;69366;-38
2021/06/21 02:40:27;;;;;;;7.43;3.95;;;;;;;31.85;61.23;100812.28;5047183;28;65860;-39
2021/06/21 02:42:59;;;;;;;11.35;4.47;;;;;;;31.88;60.77;100806.38;5048222;28;70064;-40
2021/06/21 02:45:48;;;;;;;6.93;3.92;;;;;;;31.85;61.93;100811.44;5044150;28;65424;-39
2021/06/21 02:48:20;;;;;;;14.32;4.93;;;;;;;31.88;60.83;100800.13;5037843;28;69857;-39
2021/06/21 02:50:53;;;;;;;4.75;3.90;;;;;;;31.94;61.05;100818.25;5062599;27;65822;-39
2021/06/21 02:53:50;;;;;;;5.45;3.92;;;;;;;31.97;61.41;100812.34;5085685;27;69962;-39
2021/06/21 02:56:31;;;;;;;7.70;4.40;;;;;;;31.95;61.37;100823.41;5101494;27;66025;-39
2021/06/21 02:59:10;;;;;;;5.88;4.25;;;;;;;31.95;61.13;100807.13;5103710;27;70032;-38
2021/06/21 03:02:01;;;;;;;4.88;4.13;;;;;;;31.65;60.85;100765.56;5105615;27;66127;-38
2021/06/21 03:05:04;;;;;;;15.45;4.00;;;;;;;31.96;61.39;100818.84;5109644;27;70075;-38
2021/06/21 03:10:28;;;;;;;8.18;3.35;;;;;;;32.00;61.24;100820.84;5097346;27;69747;-39
2021/06/21 03:13:02;;;;;;;7.15;3.97;;;;;;;32.01;61.22;100817.09;5101040;27;67002;-39
2021/06/21 03:15:35;;;;;;;10.77;4.35;;;;;;;32.04;61.19;100808.50;5100729;27;70068;-39
2021/06/21 03:18:08;;;;;;;13.88;4.60;;;;;;;32.00;60.88;100793.72;5098444;27;65101;-39
2021/06/21 03:20:57;;;;;;;6.38;3.67;;;;;;;32.05;60.75;100793.84;5099544;27;70192;-39
2021/06/21 03:23:54;;;;;;;4.65;3.42;;;;;;;32.07;61.29;100793.66;5087266;27;65592;-39
2021/06/21 03:26:28;;;;;;;8.43;4.10;;;;;;;32.14;60.94;100793.53;5079410;27;69080;-38
2021/06/21 03:29:18;;;;;;;7.70;3.67;;;;;;;32.16;61.07;100786.00;5102173;27;65709;-39
2021/06/21 03:32:30;;;;;;;8.50;3.53;;;;;;;32.09;61.35;100796.09;5096515;27;70446;-40
2021/06/21 03:35:05;;;;;;;4.97;4.03;;;;;;;31.91;60.83;100743.56;5087655;27;66790;-38
2021/06/21 03:37:54;;;;;;;4.90;4.03;;;;;;;32.18;60.85;100781.16;5098196;27;70012;-46
2021/06/21 03:41:03;;;;;;;5.85;3.60;;;;;;;32.16;61.16;100781.41;5100556;27;66018;-40
2021/06/21 03:46:24;;;;;;;4.90;3.45;;;;;;;32.28;60.69;100786.84;5099152;27;66257;-38
2021/06/21 03:48:56;;;;;;;4.60;3.42;;;;;;;32.32;60.59;100782.63;5100301;27;68888;-39
2021/06/21 03:51:46;;;;;;;7.35;3.67;;;;;;;32.30;60.80;100776.59;5102181;27;66151;-39
2021/06/21 03:57:09;;;;;;;6.18;3.95;;;;;;;32.43;60.39;100770.09;5077623;27;65151;-38
2021/06/21 03:59:41;;;;;;;5.43;3.85;;;;;;;32.47;60.00;100763.19;5095305;27;69853;-40
2021/06/21 04:02:12;;;;;;;5.57;4.43;;;;;;;32.48;60.33;100752.13;5098581;27;66450;-39
2021/06/21 04:05:02;;;;;;;7.43;4.03;;;;;;;32.51;60.06;100758.94;5106399;27;70123;-39
2021/06/21 04:07:52;;;;;;;6.03;3.90;;;;;;;32.47;60.33;100750.44;5101838;27;66599;-38
2021/06/21 04:10:26;;;;;;;6.00;3.10;;;;;;;32.40;60.02;100727.13;5101277;27;70004;-40
2021/06/21 04:12:57;;;;;;;4.95;4.05;;;;;;;32.58;59.78;100756.13;5106564;27;66624;-39
2021/06/21 04:15:30;;;;;;;7.63;3.22;;;;;;;32.61;59.86;100747.50;5105094;27;69498;-39
2021/06/21 04:18:05;;;;;;;4.57;3.80;;;;;;;32.63;59.72;100737.25;5099376;27;65946;-39
2021/06/21 04:20:37;;;;;;;4.88;4.07;;;;;;;32.56;59.62;100731.91;5103189;27;70507;-39
2021/06/21 04:23:10;;;;;;;5.22;3.40;;;;;;;32.63;59.69;100734.53;5098482;27;66243;-39
2021/06/21 04:25:42;;;;;;;4.28;3.40;;;;;;;32.67;59.57;100738.41;5102635;27;70640;-40
2021/06/21 04:28:13;;;;;;;;;;;;;;;32.44;60.42;100729.16;5103392;27;65843;-38
2021/06/21 04:30:48;;;;;;;6.65;3.60;;;;;;;32.65;59.68;100724.22;5109203;27;69274;-39
2021/06/21 04:33:20;;;;;;;6.03;3.33;;;;;;;32.41;59.34;100664.47;5091370;27;66470;-40
2021/06/21 04:36:09;;;;;;;3.92;3.25;;;;;;;32.71;59.35;100717.88;5107239;27;69025;-39
2021/06/21 04:38:41;;;;;;;6.53;3.70;;;;;;;32.66;59.42;100704.19;5109865;27;66829;-39
2021/06/21 04:41:12;;;;;;;7.70;4.00;;;;;;;32.70;59.62;100705.34;5105722;27;69861;-38
2021/06/21 04:43:44;;;;;;;3.97;3.30;;;;;;;32.75;59.31;100704.66;5104109;27;65118;-39
2021/06/21 04:46:51;;;;;;;4.80;3.45;;;;;;;32.78;59.11;100709.59;5107616;27;69937;-38
2021/06/21 04:49:23;;;;;;;3.90;3.60;;;;;;;32.81;59.20;100711.84;5104574;27;66453;-39
2021/06/21 04:52:13;;;;;;;4.90;3.17;;;;;;;32.82;59.44;100700.75;5107905;27;70071;-38
2021/06/21 04:54:46;;;;;;;5.47;3.70;;;;;;;32.83;59.07;100699.66;5102824;27;66199;-39
2021/06/21 04:57:18;;;;;;;3.40;3.10;;;;;;;32.84;59.18;100685.00;5089951;27;69913;-39
2021/06/21 05:00:02;;;;;;;5.03;3.70;;;;;;;32.84;58.87;100679.59;5109635;27;66321;-39
2021/06/21 05:05:49;;;;;;;4.45;3.67;;;;;;;32.76;59.17;100698.13;5099806;27;66631;-39
2021/06/21 05:08:21;;;;;;;6.07;2.97;;;;;;;32.85;58.48;100688.59;5010210;28;70099;-38
2021/06/21 05:10:52;;;;;;;3.95;3.20;;;;;;;32.86;58.40;100691.03;5027385;28;66810;-38
2021/06/21 05:13:24;;;;;;;4.35;2.97;;;;;;;32.86;58.46;100688.31;5011942;28;68968;-39
2021/06/21 05:15:56;;;;;;;3.70;3.00;;;;;;;32.81;58.00;100680.06;5010732;28;65543;-38
2021/06/21 05:18:27;;;;;;;5.45;2.58;;;;;;;32.85;58.44;100681.25;5011992;28;68667;-39
2021/06/21 05:21:00;;;;;;;4.43;2.80;;;;;;;32.87;58.23;100684.53;5010685;28;66084;-39
2021/06/21 05:27:00;;;;;;;3.97;2.92;;;;;;;32.90;58.45;100673.22;5011785;28;66115;-39
2021/06/21 05:29:32;;;;;;;9.52;2.88;;;;;;;32.90;58.56;100673.22;5012039;28;68949;-39
2021/06/21 05:32:04;;;;;;;3.17;2.70;;;;;;;32.92;58.17;100662.91;5008240;28;67687;-39
2021/06/21 05:34:36;;;;;;;11.45;3.05;;;;;;;32.96;57.86;100654.28;5010840;28;70105;-38
2021/06/21 05:37:06;;;;;;;;;;;;;;;32.76;58.74;100655.50;5009402;28;66285;-39
2021/06/21 05:39:38;;;;;;;31.13;4.80;;;;;;;32.96;58.22;100654.28;5008561;28;70200;-39
2021/06/21 05:42:09;;;;;;;27.48;5.30;;;;;;;32.94;58.35;100630.91;5009891;28;66328;-39
2021/06/21 05:44:41;;;;;;;24.67;5.13;;;;;;;33.00;58.43;100642.72;5020918;28;69453;-38
2021/06/21 05:47:14;;;;;;;27.02;6.03;;;;;;;33.05;58.06;100639.31;5048887;28;65871;-38
2021/06/21 05:49:45;;;;;;;41.40;6.85;;;;;;;33.03;58.16;100622.41;5050688;28;68890;-39
2021/06/21 05:55:43;;;;;;;28.45;5.47;;;;;;;33.05;57.72;100620.28;5046930;28;69833;-38
2021/06/21 05:58:14;;;;;;;32.25;6.18;;;;;;;33.13;57.81;100617.19;5048529;28;65632;-39
2021/06/21 06:00:46;;;;;;;;;;;;;;;32.95;58.16;100599.13;5069415;27;70191;-39
2021/06/21 06:03:17;;;;;;;19.67;5.40;;;;;;;33.18;57.58;100598.22;5104456;27;66315;-39
2021/06/21 06:06:24;;;;;;;29.83;6.22;;;;;;;33.17;57.63;100584.91;5009534;28;69892;-38
2021/06/21 06:09:14;;;;;;;19.20;5.03;;;;;;;33.25;57.40;100582.63;4993840;28;65305;-39
2021/06/21 06:11:45;;;;;;;16.52;4.97;;;;;;;33.26;57.22;100576.09;5008130;28;70841;-38
2021/06/21 06:14:17;;;;;;;21.92;5.28;;;;;;;33.27;57.20;100575.03;5009034;28;64974;-39
2021/06/21 06:16:48;;;;;;;;;;;;;;;33.09;57.17;100565.19;5009858;28;69526;-39
2021/06/21 06:20:13;;;;;;;17.45;4.80;;;;;;;33.22;56.81;100561.34;5012024;28;66481;-38
2021/06/21 06:22:45;;;;;;;20.92;4.38;;;;;;;33.36;56.84;100557.25;4959566;28;70247;-39
2021/06/21 06:25:16;;;;;;;;;;;;;;;33.18;56.93;100549.31;4960935;28;65954;-38
2021/06/21 06:28:06;;;;;;;14.40;4.37;;;;;;;33.32;56.56;100552.53;4961244;28;69501;-37
2021/06/21 06:30:56;;;;;;;14.82;4.32;;;;;;;33.43;56.17;100550.84;4958395;28;66053;-39
2021/06/21 06:33:27;;;;;;;13.38;4.45;;;;;;;33.45;56.56;100559.56;4964038;28;69970;-38
2021/06/21 06:36:17;;;;;;;10.40;3.67;;;;;;;33.48;56.14;100553.66;4959810;28;65365;-39
2021/06/21 06:38:48;;;;;;;13.13;4.03;;;;;;;33.49;56.24;100544.41;4959329;28;69897;-39
2021/06/21 06:47:18;;;;;;;12.52;3.72;;;;;;;33.49;55.89;100536.25;5023448;28;66895;-39
2021/06/21 06:50:09;;;;;;;12.95;3.67;;;;;;;33.58;56.03;100540.25;5024832;28;69791;-38
2021/06/21 06:52:59;;;;;;;8.57;3.53;;;;;;;33.59;55.77;100555.50;5023822;28;64998;-38
2021/06/21 06:58:21;;;;;;;8.90;3.85;;;;;;;33.62;55.65;100544.13;5100262;27;66003;-38
2021/06/21 07:04:18;;;;;;;5.82;3.50;;;;;;;33.64;55.51;100517.50;5099256;27;42913;-38
2021/06/21 07:06:50;;;;;;;16.02;3.20;;;;;;;33.66;54.95;100496.34;5068754;27;69162;-39
2021/06/21 07:09:23;;;;;;;9.15;3.38;;;;;;;33.71;54.92;100493.69;5068895;27;66197;-38
2021/06/21 07:12:12;;;;;;;8.05;3.05;;;;;;;33.77;55.08;100500.84;5067383;27;70034;-38
2021/06/21 07:14:47;;;;;;;6.53;3.17;;;;;;;33.77;54.64;100491.88;5066726;27;66067;-39
2021/06/21 07:17:30;;;;;;;7.78;3.13;;;;;;;33.81;54.89;100493.00;5053573;27;68924;-38
2021/06/21 07:20:22;;;;;;;5.95;3.05;;;;;;;33.83;54.93;100479.16;5025322;28;65879;-40
2021/06/21 07:22:54;;;;;;;5.38;2.88;;;;;;;33.81;54.43;100476.69;5012010;28;70217;-38
2021/06/21 07:25:25;;;;;;;4.72;2.72;;;;;;;33.81;54.70;100465.81;5027426;28;66210;-39
2021/06/21 07:27:57;;;;;;;8.32;3.20;;;;;;;33.82;54.74;100472.88;5027550;28;69654;-38
2021/06/21 07:30:30;;;;;;;6.22;2.55;;;;;;;33.85;54.43;100482.44;5025048;28;66345;-38
2021/06/21 07:33:20;;;;;;;4.03;2.47;;;;;;;33.84;54.57;100475.38;5026592;28;69519;-38
2021/06/21 07:42:05;;;;;;;4.97;2.63;;;;;;;33.85;54.38;100482.44;5027311;28;65374;-39
2021/06/21 07:44:56;;;;;;;6.70;3.17;;;;;;;33.84;54.27;100472.63;4979388;28;69216;-39
2021/06/21 07:47:28;;;;;;;6.20;2.80;;;;;;;33.85;54.25;100468.84;4978023;28;65840;-39
2021/06/21 07:49:59;;;;;;;5.88;2.80;;;;;;;33.84;54.32;100459.03;4975616;28;68976;-38
2021/06/21 07:52:31;;;;;;;7.05;2.85;;;;;;;33.83;54.46;100471.00;4974426;28;66249;-39
2021/06/21 07:55:24;;;;;;;3.95;2.65;;;;;;;33.87;54.56;100485.75;4987954;28;69960;-38
2021/06/21 07:57:56;;;;;;;6.25;2.60;;;;;;;33.85;54.39;100477.00;5030145;28;65155;-39
2021/06/21 08:00:28;;;;;;;6.30;3.40;;;;;;;33.87;54.22;100466.69;5030755;28;70221;-38
2021/06/21 08:05:51;;;;;;;5.07;2.72;;;;;;;33.66;54.24;100417.44;5033724;28;70071;-38
2021/06/21 08:08:22;;;;;;;3.60;3.20;;;;;;;33.87;54.46;100447.66;5028382;28;66868;-39
2021/06/21 08:11:12;;;;;;;3.35;3.00;;;;;;;33.70;54.04;100410.41;5030459;28;69815;-38
2021/06/21 08:13:57;;;;;;;3.58;3.25;;;;;;;33.84;54.52;100448.16;5032069;28;66716;-38
2021/06/21 08:16:29;;;;;;;7.50;3.17;;;;;;;33.81;54.48;100450.28;5030348;28;69215;-39
2021/06/21 08:19:19;;;;;;;2.92;2.47;;;;;;;33.77;54.56;100460.03;5059704;27;65319;-38
2021/06/21 08:22:09;;;;;;;6.45;2.83;;;;;;;33.76;54.84;100466.53;5100184;27;70132;-39
2021/06/21 08:24:41;;;;;;;5.00;2.88;;;;;;;33.78;54.66;100450.81;5104785;27;65985;-38
2021/06/21 08:30:21;;;;;;;7.43;3.47;;;;;;;33.83;54.77;100468.28;5107139;27;65277;-39
2021/06/21 08:33:24;;;;;;;6.47;2.92;;;;;;;33.85;54.93;100463.41;5102223;27;70292;-39
2021/06/21 08:36:21;;;;;;;3.92;2.63;;;;;;;33.81;55.17;100461.19;5033665;28;63830;-39
2021/06/21 08:39:10;;;;;;;5.45;3.00;;;;;;;33.82;55.01;100459.28;5033238;28;70400;-39
2021/06/21 08:47:44;;;;;;;4.10;3.22;;;;;;;33.76;54.83;100458.38;5032155;28;66860;-38
2021/06/21 08:50:17;;;;;;;7.10;2.70;;;;;;;33.80;54.99;100464.97;5033469;28;69402;-39
2021/06/21 08:53:26;;;;;;;4.32;3.08;;;;;;;33.71;55.28;100458.34;5033580;28;66269;-43
2021/06/21 08:56:16;;;;;;;3.15;2.85;;;;;;;33.71;55.32;100462.91;5025743;28;70553;-39
2021/06/21 08:59:06;;;;;;;3.38;2.42;;;;;;;33.77;54.99;100464.66;5033825;28;65455;-38
2021/06/21 09:01:40;;;;;;;3.25;2.65;;;;;;;33.71;55.11;100455.63;5032681;28;69772;-39
2021/06/21 09:04:12;;;;;;;4.55;2.45;;;;;;;33.75;55.26;100466.81;5034131;28;66069;-39
2021/06/21 09:09:38;;;;;;;4.10;3.15;;;;;;;33.67;55.09;100459.88;5034012;28;66242;-39
2021/06/21 09:12:10;;;;;;;5.65;2.67;;;;;;;33.68;55.49;100472.41;5040787;28;70101;-38
2021/06/21 09:14:42;;;;;;;3.53;3.22;;;;;;;33.71;55.28;100476.53;5102361;27;66295;-39
2021/06/21 09:17:21;;;;;;;3.53;2.75;;;;;;;33.72;55.38;100473.56;5090548;27;70738;-39
2021/06/21 09:20:00;;;;;;;3.80;2.33;;;;;;;33.69;55.43;100471.34;5104243;27;66277;-38
2021/06/21 09:22:37;;;;;;;4.07;3.03;;;;;;;33.70;55.74;100464.00;5102037;27;70185;-38
2021/06/21 09:28:15;;;;;;;3.05;2.80;;;;;;;33.67;55.84;100459.88;5101466;27;70402;-39
2021/06/21 09:34:15;;;;;;;;;;;;;;;33.38;56.29;100465.41;5009278;28;70094;-38
2021/06/21 09:37:05;;;;;;;3.75;2.50;;;;;;;33.57;55.62;100462.44;5013120;28;66548;-39
2021/06/21 09:39:55;;;;;;;4.78;2.88;;;;;;;33.58;55.55;100461.41;5010316;28;69940;-39
2021/06/21 09:42:27;;;;;;;2.55;2.35;;;;;;;33.63;55.96;100468.78;5008538;28;65412;-41
2021/06/21 09:45:00;;;;;;;4.40;3.08;;;;;;;33.36;55.74;100421.31;5011533;28;68975;-39
2021/06/21 09:47:50;;;;;;;3.15;2.78;;;;;;;33.54;55.93;100462.94;5012370;28;67037;-40
2021/06/21 09:50:28;;;;;;;4.00;2.67;;;;;;;33.60;55.70;100472.84;5010319;28;69970;-39
2021/06/21 09:53:02;;;;;;;7.65;3.17;;;;;;;33.34;55.72;100428.91;5007429;28;66101;-39
2021/06/21 09:55:44;;;;;;;8.68;2.83;;;;;;;33.57;56.12;100481.47;4995342;28;70136;-39
2021/06/21 09:58:36;;;;;;;7.07;3.03;;;;;;;33.51;56.19;100474.28;5005917;28;66071;-38
2021/06/21 10:01:31;;;;;;;3.75;2.65;;;;;;;33.57;55.73;100470.59;5009549;28;70046;-38
2021/06/21 10:04:24;;;;;;;3.85;2.58;;;;;;;33.56;56.07;100474.41;5008315;28;66209;-39
2021/06/21 10:06:56;;;;;;;3.72;2.50;;;;;;;33.55;55.91;100489.09;5007867;28;70710;-38
2021/06/21 10:09:45;;;;;;;2.60;2.40;;;;;;;33.53;56.20;100496.66;5018106;27;65747;-38
2021/06/21 10:12:36;;;;;;;3.88;2.90;;;;;;;33.44;56.17;100498.94;5102449;27;69842;-39
2021/06/21 10:15:10;;;;;;;3.10;2.58;;;;;;;33.25;56.42;100457.56;5088533;27;66078;-37
2021/06/21 10:20:50;;;;;;;6.70;2.92;;;;;;;33.48;56.31;100496.53;5101094;27;66346;-38
2021/06/21 10:26:12;;;;;;;3.25;2.65;;;;;;;33.46;56.36;100501.41;5097688;27;66414;-39
2021/06/21 10:29:01;;;;;;;;;;;;;;;33.20;57.06;100492.81;5104481;27;69268;-38
2021/06/21 10:31:51;;;;;;;4.95;2.60;;;;;;;33.40;56.23;100491.50;5098867;27;66111;-39
2021/06/21 10:34:41;;;;;;;5.55;3.05;;;;;;;33.32;56.12;100490.88;5108078;27;69863;-38
2021/06/21 10:37:20;;;;;;;3.35;2.80;;;;;;;33.18;56.22;100473.22;5104244;27;66104;-38
2021/06/21 10:40:09;;;;;;;4.88;3.13;;;;;;;33.40;56.37;100527.69;5106356;27;69951;-38
2021/06/21 10:42:51;;;;;;;4.97;2.90;;;;;;;33.38;56.24;100521.69;5099881;27;66400;-38
2021/06/21 10:45:42;;;;;;;3.45;3.00;;;;;;;33.36;56.32;100530.06;5056452;27;69228;-39
2021/06/21 10:48:15;;;;;;;3.05;2.85;;;;;;;33.34;56.29;100532.19;5061680;27;65122;-38
2021/06/21 10:51:05;;;;;;;4.63;3.15;;;;;;;33.27;56.33;100534.28;5061793;27;69436;-40
2021/06/21 10:53:53;;;;;;;3.28;2.97;;;;;;;33.26;56.56;100540.75;5069859;27;65593;-40
2021/06/21 10:56:42;;;;;;;3.88;3.05;;;;;;;33.25;56.40;100543.75;5066246;28;69939;-38
2021/06/21 10:59:17;;;;;;;9.63;3.58;;;;;;;33.31;56.69;100562.59;5066625;27;65875;-39
2021/06/21 11:01:50;;;;;;;5.13;3.10;;;;;;;33.28;56.61;100554.94;5065897;28;69250;-40
2021/06/21 11:04:40;;;;;;;3.90;3.20;;;;;;;33.24;56.90;100570.09;5066089;28;66265;-39
2021/06/21 11:07:24;;;;;;;5.60;3.25;;;;;;;33.29;56.78;100578.34;5066037;28;70010;-43
2021/06/21 11:10:02;;;;;;;3.65;3.33;;;;;;;33.31;56.76;100581.63;5062366;28;65454;-39
2021/06/21 11:12:33;;;;;;;7.68;3.55;;;;;;;33.30;56.79;100584.59;5067829;28;69916;-39
2021/06/21 11:15:06;;;;;;;6.68;3.30;;;;;;;33.30;56.89;100581.88;5063553;28;65262;-38
2021/06/21 11:18:02;;;;;;;6.80;4.00;;;;;;;33.31;57.09;100584.34;5055867;28;69975;-39
2021/06/21 11:24:47;;;;;;;17.20;6.22;;;;;;;33.09;57.97;100588.81;5103845;27;70189;-49
2021/06/21 11:27:26;;;;;;;27.38;6.57;;;;;;;33.07;57.93;100590.94;5104670;27;66098;-40
2021/06/21 11:33:10;;;;;;;7.05;6.40;;;;;;;32.92;58.29;100603.13;5114063;27;67468;-42
2021/06/21 11:35:54;;;;;;;20.02;7.47;;;;;;;32.70;58.02;100564.13;5109407;27;69043;-40
2021/06/21 11:41:45;;;;;;;;;;;;;;;32.75;58.98;100610.41;5111796;27;69492;-40
2021/06/21 11:44:40;;;;;;;14.05;7.13;;;;;;;32.85;58.75;100610.63;5094076;27;66187;-41
2021/06/21 11:47:31;;;;;;;;;;;;;;;32.71;59.45;100614.66;5110523;27;70108;-40
2021/06/21 11:50:16;;;;;;;10.80;7.00;;;;;;;32.77;59.07;100602.84;5115452;27;66232;-41
2021/06/21 11:52:48;;;;;;;18.95;7.00;;;;;;;32.90;58.49;100613.44;5112149;27;69879;-41
2021/06/21 11:55:20;;;;;;;12.10;6.70;;;;;;;32.83;58.94;100606.50;5113433;27;64748;-41
2021/06/21 11:58:10;;;;;;;19.02;7.50;;;;;;;32.90;58.41;100624.31;5115004;27;70147;-42
2021/06/21 12:00:42;;;;;;;9.20;6.45;;;;;;;32.88;58.26;100626.44;5118870;27;66272;-41
2021/06/21 12:03:13;;;;;;;;;;;;;;;32.68;59.24;100631.41;5113286;27;69167;-41
2021/06/21 12:05:55;;;;;;;11.23;6.22;;;;;;;32.57;59.50;100586.09;5114336;27;66158;-40
2021/06/21 12:08:26;;;;;;;9.07;6.55;;;;;;;32.77;57.39;100624.56;5118067;27;69045;-40
2021/06/21 12:11:11;;;;;;;10.45;7.03;;;;;;;32.57;55.48;100630.41;5112734;27;66220;-39
2021/06/21 12:13:53;;;;;;;7.53;6.82;;;;;;;32.53;54.66;100639.25;5111178;27;70120;-39
2021/06/21 12:16:25;;;;;;;12.97;7.57;;;;;;;32.33;54.34;100634.97;5111265;27;65143;-41
2021/06/21 12:18:59;;;;;;;9.40;7.60;;;;;;;32.27;54.06;100646.78;5110853;27;69852;-40
2021/06/21 12:21:49;;;;;;;33.10;9.05;;;;;;;32.07;52.81;100648.97;5107030;27;65447;-40
2021/06/21 12:24:23;;;;;;;24.10;7.88;;;;;;;31.98;52.52;100649.34;5113849;27;70502;-39
2021/06/21 12:26:57;;;;;;;14.73;8.20;;;;;;;31.91;51.90;100666.75;5109632;27;66035;-41
2021/06/21 12:29:34;;;;;;;20.55;7.57;;;;;;;31.80;50.96;100674.63;5096497;27;70856;-40
2021/06/21 12:35:19;;;;;;;19.92;7.60;;;;;;;31.54;49.63;100686.69;5092187;27;70235;-40
2021/06/21 12:37:50;;;;;;;18.98;7.68;;;;;;;31.44;49.71;100680.97;5105208;27;65836;-41
2021/06/21 12:40:40;;;;;;;27.60;8.07;;;;;;;31.36;49.21;100689.41;5102386;27;70246;-39
2021/06/21 12:43:12;;;;;;;22.10;8.00;;;;;;;31.28;49.02;100687.00;5109901;27;65556;-41
2021/06/21 12:46:02;;;;;;;17.40;7.55;;;;;;;31.21;49.08;100697.09;5113163;27;70394;-38
2021/06/21 12:48:33;;;;;;;18.83;7.55;;;;;;;31.11;47.43;100698.44;5108807;27;65688;-38
2021/06/21 12:51:05;;;;;;;39.58;8.80;;;;;;;31.09;49.01;100703.28;5108022;27;69779;-38
2021/06/21 12:53:41;;;;;;;19.52;8.23;;;;;;;31.05;49.34;100710.19;5109221;27;66358;-39
2021/06/21 12:56:23;;;;;;;13.48;8.63;;;;;;;30.75;48.27;100676.72;5110804;27;70209;-37
2021/06/21 12:58:57;;;;;;;12.57;8.20;;;;;;;31.05;48.37;100731.03;5108982;27;65771;-38
2021/06/21 13:04:41;;;;;;;11.50;8.43;;;;;;;30.88;46.82;100731.63;5112018;27;66337;-38
2021/06/21 13:07:31;;;;;;;18.58;8.98;;;;;;;30.89;46.30;100738.69;5110376;27;70108;-37
2021/06/21 13:10:23;;;;;;;16.58;8.45;;;;;;;30.86;47.29;100749.13;5110546;27;65625;-38
2021/06/21 13:12:56;;;;;;;20.17;9.95;;;;;;;30.80;46.92;100755.47;5110493;27;69159;-38
2021/06/21 13:15:47;;;;;;;15.98;9.82;;;;;;;30.71;47.04;100753.00;5111428;27;65815;-38
2021/06/21 13:18:19;;;;;;;15.40;9.98;;;;;;;30.71;46.80;100769.25;5111542;27;70343;-38
2021/06/21 13:24:00;;;;;;;22.17;9.75;;;;;;;30.60;47.23;100766.44;5109616;27;70590;-41
2021/06/21 13:26:36;;;;;;;16.55;10.73;;;;;;;30.58;46.94;100772.06;5106344;27;66023;-39
2021/06/21 13:29:28;;;;;;;18.52;11.15;;;;;;;30.54;45.42;100787.09;5101262;27;68810;-38
2021/06/21 13:32:01;;;;;;;25.60;11.57;;;;;;;30.26;45.54;100745.03;5105935;27;65989;-41
2021/06/21 13:34:40;;;;;;;21.58;11.73;;;;;;;30.47;44.87;100794.44;5113437;27;69930;-39
2021/06/21 13:37:31;;;;;;;26.88;13.38;;;;;;;30.44;46.09;100794.88;5106168;27;66045;-38
2021/06/21 13:40:05;;;;;;;53.85;12.68;;;;;;;30.20;45.98;100756.72;5093831;27;70482;-41
2021/06/21 13:42:59;;;;;;;43.83;13.90;;;;;;;30.12;46.17;100748.88;5110818;27;66287;-38
2021/06/21 13:45:49;;;;;;;64.15;14.23;;;;;;;30.33;47.28;100791.00;5110079;27;69192;-36
2021/06/21 13:51:29;;;;;;;45.30;14.15;;;;;;;30.36;46.77;100787.00;5106940;27;69991;-37
2021/06/21 13:54:08;;;;;;;33.40;14.55;;;;;;;30.04;46.38;100738.31;5112670;27;66804;-38
2021/06/21 13:56:40;;;;;;;27.98;13.93;;;;;;;30.25;45.85;100775.84;5094310;27;70034;-38
2021/06/21 13:59:12;;;;;;;41.10;13.77;;;;;;;30.24;45.69;100776.06;5113406;27;66398;-39
2021/06/21 14:02:09;;;;;;;22.92;13.65;;;;;;;30.25;44.11;100783.97;5110069;27;69888;-37
2021/06/21 14:05:06;;;;;;;28.52;13.68;;;;;;;30.23;44.61;100780.66;5109917;27;66001;-37
2021/06/21 14:07:38;;;;;;;25.10;13.85;;;;;;;30.23;45.32;100777.13;5015799;28;70119;-37
2021/06/21 14:10:28;;;;;;;41.65;14.55;;;;;;;30.23;43.81;100780.66;5016865;28;65759;-39
2021/06/21 14:12:59;;;;;;;38.05;14.07;;;;;;;30.09;43.72;100765.53;5019306;28;70101;-40
2021/06/21 14:15:31;;;;;;;26.95;14.40;;;;;;;30.15;43.73;100786.31;5018169;28;66062;-39
2021/06/21 14:18:03;;;;;;;30.55;14.77;;;;;;;30.12;43.65;100786.75;5017422;28;70303;-39
2021/06/21 14:20:34;;;;;;;32.72;14.77;;;;;;;30.01;42.44;100773.91;5023592;28;66579;-40
2021/06/21 14:23:28;;;;;;;27.40;14.70;;;;;;;30.04;43.04;100784.28;5009297;28;69933;-40